Time;durP1;ratioP1;P1;durP2;ratioP2;P2;SDS_P1;SDS_P2;PMS_P1;PMS_P2;Temp;Humidity;BMP_temperature;BMP_pressure;BME280_temperature;BME280_humidity;BME280_pressure;Samples;Min_cycle;Max_cycle;Signal;HPM_P1;HPM_P2
2022/12/02 00:00:25;;;;;;;11.75;10.55;;;21.00;45.50;;;;;;4993654;28;20104;-59
2022/12/02 00:02:51;;;;;;;12.23;10.95;;;21.00;45.50;;;;;;4994990;28;20121;-58
2022/12/02 00:05:20;;;;;;;12.25;10.95;;;21.00;45.40;;;;;;4993132;28;20068;-59
2022/12/02 00:07:47;;;;;;;11.48;10.35;;;21.00;45.40;;;;;;4994858;28;20128;-59
2022/12/02 00:10:27;;;;;;;12.23;10.73;;;20.90;45.30;;;;;;4994366;28;20042;-59
2022/12/02 00:12:54;;;;;;;12.23;10.93;;;20.90;45.20;;;;;;4994043;28;20046;-59
2022/12/02 00:15:41;;;;;;;10.88;9.45;;;20.90;45.20;;;;;;4993212;28;20178;-59
2022/12/02 00:18:11;;;;;;;12.77;10.32;;;20.90;45.10;;;;;;4993150;28;20038;-58
2022/12/02 00:20:37;;;;;;;11.10;10.00;;;20.90;45.20;;;;;;4993566;28;20058;-59
2022/12/02 00:23:04;;;;;;;12.18;10.35;;;20.80;45.10;;;;;;4996252;28;20127;-58
2022/12/02 00:25:30;;;;;;;10.80;9.65;;;20.80;45.20;;;;;;4992998;28;20042;-58
2022/12/02 00:27:56;;;;;;;11.73;10.10;;;20.80;45.10;;;;;;4994064;28;20049;-58
2022/12/02 00:30:22;;;;;;;11.82;10.18;;;20.80;45.00;;;;;;4992756;28;20117;-59
2022/12/02 00:32:47;;;;;;;11.50;10.18;;;20.70;45.00;;;;;;4994018;28;20464;-60
2022/12/02 00:35:14;;;;;;;11.35;9.98;;;20.70;44.90;;;;;;4992365;28;20038;-59
2022/12/02 00:37:40;;;;;;;10.40;9.25;;;20.70;44.90;;;;;;4993903;28;20559;-60
2022/12/02 00:40:06;;;;;;;10.77;9.45;;;20.70;44.90;;;;;;4994550;28;20040;-59
2022/12/02 00:42:32;;;;;;;11.80;10.25;;;20.70;44.80;;;;;;4992062;28;20057;-60
2022/12/02 00:47:42;;;;;;;11.65;9.73;;;20.70;44.80;;;;;;4992413;28;20050;-60
2022/12/02 00:50:09;;;;;;;11.85;9.73;;;20.60;44.70;;;;;;4993532;28;20469;-58
2022/12/02 00:52:34;;;;;;;10.90;9.70;;;20.60;44.70;;;;;;4993651;28;20042;-58
2022/12/02 00:55:00;;;;;;;12.10;10.30;;;20.60;44.70;;;;;;4991938;28;20056;-58
2022/12/02 00:57:26;;;;;;;11.32;10.13;;;20.60;44.70;;;;;;4996079;28;20037;-59
2022/12/02 00:59:51;;;;;;;10.82;9.35;;;20.60;44.70;;;;;;4994401;28;20118;-58
2022/12/02 01:02:17;;;;;;;10.38;9.30;;;20.60;44.60;;;;;;4993078;28;20046;-58
2022/12/02 01:04:43;;;;;;;11.18;9.63;;;20.60;44.60;;;;;;4992777;28;20033;-59
2022/12/02 01:07:08;;;;;;;10.85;9.60;;;20.60;44.60;;;;;;4993607;28;20038;-58
2022/12/02 01:09:34;;;;;;;10.52;9.43;;;20.50;44.50;;;;;;4992023;28;20047;-59
2022/12/02 01:11:59;;;;;;;11.02;9.80;;;20.50;44.50;;;;;;4988918;28;20721;-59
2022/12/02 01:14:25;;;;;;;10.60;9.50;;;20.50;44.40;;;;;;4992820;28;20115;-60
2022/12/02 01:16:51;;;;;;;10.45;9.30;;;20.50;44.40;;;;;;4993839;28;20038;-58
2022/12/02 01:19:17;;;;;;;11.75;9.48;;;20.50;44.40;;;;;;4992371;28;20038;-60
2022/12/02 01:21:43;;;;;;;10.77;9.52;;;20.50;44.40;;;;;;4992625;28;20413;-60
2022/12/02 01:24:08;;;;;;;11.70;9.93;;;20.50;44.30;;;;;;4991823;28;20489;-59
2022/12/02 01:26:34;;;;;;;11.20;8.88;;;20.50;44.30;;;;;;4991605;28;20050;-58
2022/12/02 01:29:00;;;;;;;11.18;9.98;;;20.50;44.30;;;;;;4991420;28;20568;-58
2022/12/02 01:31:25;;;;;;;10.23;9.15;;;20.40;44.20;;;;;;4992792;28;20081;-58
2022/12/02 01:33:51;;;;;;;9.88;8.80;;;20.40;44.20;;;;;;4991106;28;20057;-57
2022/12/02 01:36:16;;;;;;;10.43;9.15;;;20.40;44.20;;;;;;4991774;28;20385;-59
2022/12/02 01:38:42;;;;;;;11.43;9.93;;;20.40;44.20;;;;;;4992825;28;20393;-58
2022/12/02 01:41:08;;;;;;;10.35;9.13;;;20.40;44.20;;;;;;4991315;28;20069;-60
2022/12/02 01:43:34;;;;;;;10.63;9.52;;;20.40;44.20;;;;;;4993801;28;20413;-58
2022/12/02 01:46:00;;;;;;;10.23;8.65;;;20.40;44.10;;;;;;4991384;28;20050;-58
2022/12/02 01:48:27;;;;;;;9.45;8.43;;;20.30;44.10;;;;;;4992824;28;20092;-59
2022/12/02 01:50:53;;;;;;;10.80;8.93;;;20.30;44.10;;;;;;4990171;28;20031;-59
2022/12/02 01:53:18;;;;;;;10.75;9.60;;;20.30;44.00;;;;;;4991319;28;20043;-60
2022/12/02 01:55:44;;;;;;;9.35;8.40;;;20.30;44.00;;;;;;4992696;28;20042;-59
2022/12/02 01:58:12;;;;;;;10.25;8.63;;;20.30;44.00;;;;;;4993321;28;20052;-60
2022/12/02 02:00:39;;;;;;;9.68;8.30;;;20.30;44.00;;;;;;4991509;28;20694;-60
2022/12/02 02:03:04;;;;;;;10.00;8.65;;;20.30;44.00;;;;;;4990903;28;20052;-59
2022/12/02 02:05:32;;;;;;;11.07;8.93;;;20.30;44.00;;;;;;4993235;28;20034;-59
2022/12/02 02:08:06;;;;;;;9.90;8.32;;;20.20;43.90;;;;;;4992783;28;20056;-60
2022/12/02 02:10:33;;;;;;;11.98;9.15;;;20.20;43.90;;;;;;4995270;28;20545;-58
2022/12/02 02:12:59;;;;;;;9.35;8.18;;;20.20;43.90;;;;;;4993180;28;20037;-58
2022/12/02 02:15:25;;;;;;;11.25;8.23;;;20.20;43.90;;;;;;4989377;28;20096;-59
2022/12/02 02:17:53;;;;;;;10.52;8.90;;;20.20;43.90;;;;;;4992719;28;20074;-57
2022/12/02 02:20:22;;;;;;;10.60;8.70;;;20.20;43.80;;;;;;4992078;28;20061;-59
2022/12/02 02:22:56;;;;;;;9.30;8.30;;;20.20;43.80;;;;;;4991987;28;20034;-59
2022/12/02 02:25:22;;;;;;;10.18;8.45;;;20.20;43.70;;;;;;4990520;28;20278;-58
2022/12/02 02:27:56;;;;;;;10.07;8.95;;;20.10;43.70;;;;;;4991560;28;20030;-59
2022/12/02 02:30:23;;;;;;;9.90;8.27;;;20.10;43.60;;;;;;4992204;28;20666;-60
2022/12/02 02:32:49;;;;;;;9.85;7.80;;;20.10;43.70;;;;;;4993277;28;20080;-58
2022/12/02 02:35:16;;;;;;;8.35;7.22;;;20.10;43.70;;;;;;5007263;28;20041;-57
2022/12/02 02:37:42;;;;;;;9.90;8.07;;;20.10;43.70;;;;;;4992568;28;20050;-58
2022/12/02 02:40:09;;;;;;;10.18;8.00;;;20.10;43.60;;;;;;4992210;28;20069;-60
2022/12/02 02:42:35;;;;;;;8.63;7.72;;;20.10;43.60;;;;;;4990011;28;20054;-58
2022/12/02 02:45:02;;;;;;;8.30;6.97;;;20.10;43.50;;;;;;4991454;28;20038;-58
2022/12/02 02:47:27;;;;;;;10.25;7.45;;;20.10;43.50;;;;;;4991533;28;20133;-59
2022/12/02 02:49:53;;;;;;;10.35;8.02;;;20.10;43.50;;;;;;4990178;28;20125;-59
2022/12/02 02:52:19;;;;;;;9.30;7.25;;;20.10;43.40;;;;;;4994790;28;20096;-59
2022/12/02 02:54:44;;;;;;;7.68;6.85;;;20.00;43.40;;;;;;4996076;28;20046;-59
2022/12/02 02:57:10;;;;;;;8.38;7.45;;;20.00;43.30;;;;;;4994917;28;20345;-59
2022/12/02 02:59:39;;;;;;;8.63;7.47;;;20.00;43.40;;;;;;4994851;28;20045;-58
2022/12/02 03:02:07;;;;;;;9.85;7.95;;;20.00;43.40;;;;;;4995124;28;20038;-59
2022/12/02 03:04:33;;;;;;;9.40;7.78;;;20.00;43.30;;;;;;4996832;28;20050;-59
2022/12/02 03:06:59;;;;;;;8.05;7.25;;;20.00;43.40;;;;;;4996751;28;20057;-59
2022/12/02 03:09:25;;;;;;;8.23;6.68;;;20.00;43.40;;;;;;5001738;28;20060;-58
2022/12/02 03:11:53;;;;;;;7.90;7.10;;;19.90;43.30;;;;;;4994282;28;20099;-60
2022/12/02 03:14:21;;;;;;;8.05;6.90;;;19.90;43.30;;;;;;4995764;28;20045;-58
2022/12/02 03:16:47;;;;;;;10.52;7.20;;;19.90;44.00;;;;;;4996093;28;20030;-58
2022/12/02 03:19:13;;;;;;;7.70;6.50;;;19.90;43.30;;;;;;4994175;28;20045;-60
2022/12/02 03:21:39;;;;;;;7.28;6.43;;;19.90;43.30;;;;;;4993598;28;20096;-59
2022/12/02 03:24:06;;;;;;;7.55;6.63;;;19.90;43.40;;;;;;4994041;28;20569;-59
2022/12/02 03:26:33;;;;;;;8.52;7.05;;;19.90;43.30;;;;;;4996456;28;20759;-60
2022/12/02 03:29:00;;;;;;;7.50;6.32;;;19.90;43.30;;;;;;4992599;28;20123;-60
2022/12/02 03:31:27;;;;;;;8.48;6.95;;;19.90;43.30;;;;;;4998275;28;20034;-58
2022/12/02 03:33:53;;;;;;;7.18;6.47;;;19.90;43.20;;;;;;4994244;28;20033;-59
2022/12/02 03:36:19;;;;;;;7.05;6.25;;;19.90;43.30;;;;;;4998182;28;20585;-59
2022/12/02 03:38:45;;;;;;;7.68;6.88;;;19.80;43.20;;;;;;4995224;28;20494;-58
2022/12/02 03:41:11;;;;;;;8.32;6.70;;;19.80;43.10;;;;;;4995185;28;20548;-61
2022/12/02 03:43:37;;;;;;;7.13;5.93;;;19.80;43.10;;;;;;4996690;28;20061;-59
2022/12/02 03:46:05;;;;;;;7.53;6.05;;;19.80;43.10;;;;;;4995818;28;20042;-58
2022/12/02 03:48:32;;;;;;;6.28;5.65;;;19.80;43.10;;;;;;4994709;28;20050;-58
2022/12/02 03:50:58;;;;;;;6.55;5.93;;;19.80;43.00;;;;;;4996529;28;20061;-59
2022/12/02 03:53:23;;;;;;;7.07;5.88;;;19.80;43.00;;;;;;4995929;28;20884;-58
2022/12/02 03:55:49;;;;;;;7.57;5.78;;;19.70;42.90;;;;;;4996542;28;20122;-59
2022/12/02 03:58:15;;;;;;;6.63;5.93;;;19.70;43.00;;;;;;4995367;28;20142;-59
2022/12/02 04:00:40;;;;;;;6.72;5.72;;;19.70;43.00;;;;;;4994378;28;20510;-58
2022/12/02 04:03:06;;;;;;;6.90;6.20;;;19.70;43.00;;;;;;4995387;28;20093;-60
2022/12/02 04:05:32;;;;;;;8.05;6.70;;;19.70;43.00;;;;;;4996199;28;20401;-60
2022/12/02 04:07:58;;;;;;;7.22;6.10;;;19.70;43.00;;;;;;4996238;28;20045;-59
2022/12/02 04:10:23;;;;;;;6.95;6.13;;;19.70;42.90;;;;;;4994789;28;20080;-59
2022/12/02 04:12:49;;;;;;;6.60;5.90;;;19.70;42.90;;;;;;4994389;28;20085;-60
2022/12/02 04:15:15;;;;;;;6.65;5.32;;;19.70;42.90;;;;;;4994240;28;20038;-60
2022/12/02 04:17:40;;;;;;;7.25;5.90;;;19.70;42.80;;;;;;4993707;28;20520;-59
2022/12/02 04:20:07;;;;;;;6.72;6.03;;;19.60;42.80;;;;;;4993552;28;20049;-58
2022/12/02 04:22:33;;;;;;;6.80;5.47;;;19.70;42.80;;;;;;4994360;28;20038;-59
2022/12/02 04:25:01;;;;;;;6.82;6.13;;;19.60;42.80;;;;;;4995425;28;20095;-60
2022/12/02 04:27:27;;;;;;;7.18;5.72;;;19.60;42.70;;;;;;4995841;28;20104;-59
2022/12/02 04:29:53;;;;;;;6.72;6.07;;;19.60;42.70;;;;;;4995167;28;20484;-58
2022/12/02 04:32:20;;;;;;;6.57;5.88;;;19.60;42.70;;;;;;4995923;28;20038;-59
2022/12/02 04:34:45;;;;;;;6.95;5.63;;;19.60;42.70;;;;;;5002013;28;20057;-58
2022/12/02 04:37:11;;;;;;;6.65;5.50;;;19.60;42.70;;;;;;4993670;28;20070;-60
2022/12/02 04:39:37;;;;;;;7.20;5.97;;;19.60;43.40;;;;;;4994899;28;20073;-59
2022/12/02 04:42:03;;;;;;;5.68;5.07;;;19.60;42.70;;;;;;4993131;28;20583;-60
2022/12/02 04:44:28;;;;;;;6.53;5.38;;;19.60;42.60;;;;;;4992661;28;20034;-58
2022/12/02 04:46:54;;;;;;;6.78;5.57;;;19.60;42.60;;;;;;4994078;28;20042;-59
2022/12/02 04:49:19;;;;;;;6.82;5.40;;;19.60;42.70;;;;;;4994486;28;20485;-58
2022/12/02 04:51:45;;;;;;;6.10;5.35;;;19.60;42.60;;;;;;4993560;28;20081;-59
2022/12/02 04:54:11;;;;;;;6.15;5.13;;;19.60;42.60;;;;;;4993405;28;20440;-59
2022/12/02 04:56:36;;;;;;;6.97;5.68;;;19.50;42.50;;;;;;4993604;28;20031;-58
2022/12/02 04:59:02;;;;;;;6.25;5.22;;;19.50;42.50;;;;;;4992549;28;20034;-58
2022/12/02 05:01:28;;;;;;;7.25;5.97;;;19.50;42.40;;;;;;4994987;28;20034;-59
2022/12/02 05:03:53;;;;;;;6.10;5.50;;;19.60;42.50;;;;;;4994141;28;20069;-59
2022/12/02 05:06:19;;;;;;;6.60;5.82;;;19.50;42.50;;;;;;4993319;28;20790;-59
2022/12/02 05:08:44;;;;;;;7.97;5.70;;;19.50;42.50;;;;;;4992154;28;20077;-58
2022/12/02 05:11:10;;;;;;;7.00;6.20;;;19.50;42.40;;;;;;4993199;28;20066;-58
2022/12/02 05:13:36;;;;;;;6.45;5.22;;;19.50;42.40;;;;;;4993592;28;20043;-59
2022/12/02 05:16:01;;;;;;;6.82;5.95;;;19.50;42.40;;;;;;4993584;28;20648;-59
2022/12/02 05:18:27;;;;;;;7.10;6.05;;;19.50;42.40;;;;;;4992903;28;20042;-58
2022/12/02 05:20:52;;;;;;;6.10;5.03;;;19.50;42.40;;;;;;4994676;28;20449;-59
2022/12/02 05:23:18;;;;;;;6.47;5.30;;;19.40;42.40;;;;;;4994918;28;20073;-59
2022/12/02 05:25:43;;;;;;;6.63;5.53;;;19.40;42.40;;;;;;4978340;28;20076;-59
2022/12/02 05:28:09;;;;;;;6.75;5.50;;;19.40;42.30;;;;;;4992122;28;20086;-60
2022/12/02 05:30:34;;;;;;;6.32;5.65;;;19.40;42.30;;;;;;4993224;28;20464;-59
2022/12/02 05:33:00;;;;;;;6.13;5.32;;;19.40;42.30;;;;;;4993301;28;20043;-58
2022/12/02 05:35:26;;;;;;;7.00;5.43;;;19.40;42.30;;;;;;4993915;28;20117;-59
2022/12/02 05:37:51;;;;;;;6.65;5.55;;;19.40;42.30;;;;;;4994498;28;20413;-59
2022/12/02 05:40:17;;;;;;;5.43;4.93;;;19.40;42.30;;;;;;4993998;28;20038;-60
2022/12/02 05:42:43;;;;;;;6.78;5.55;;;19.40;42.30;;;;;;4992642;28;20567;-58
2022/12/02 05:45:18;;;;;;;8.05;6.07;;;19.40;42.30;;;;;;4992155;28;20044;-58
2022/12/02 05:47:49;;;;;;;6.35;5.40;;;19.40;42.20;;;;;;4992923;28;20381;-58
2022/12/02 05:50:15;;;;;;;7.03;5.53;;;19.40;42.20;;;;;;4991909;28;20070;-60
2022/12/02 05:52:42;;;;;;;6.85;5.65;;;19.40;42.30;;;;;;4993822;28;20485;-58
2022/12/02 05:55:17;;;;;;;6.82;6.05;;;19.40;42.20;;;;;;4993212;28;20046;-58
2022/12/02 05:57:43;;;;;;;7.53;5.72;;;19.40;42.20;;;;;;4990791;28;20046;-58
2022/12/02 06:00:17;;;;;;;7.90;6.05;;;19.30;42.20;;;;;;4994385;28;20046;-59
2022/12/02 06:02:47;;;;;;;5.82;5.22;;;19.40;42.10;;;;;;4993188;28;20054;-58
2022/12/02 06:05:24;;;;;;;8.95;5.60;;;19.30;42.20;;;;;;4994086;28;20038;-58
2022/12/02 06:07:54;;;;;;;6.28;5.60;;;19.30;42.10;;;;;;4990274;28;20069;-60
2022/12/02 06:10:26;;;;;;;7.30;5.68;;;19.30;42.10;;;;;;4992523;28;20446;-58
2022/12/02 06:12:55;;;;;;;7.90;5.93;;;19.30;42.10;;;;;;4991705;28;20030;-58
2022/12/02 06:15:21;;;;;;;6.20;5.10;;;19.30;42.20;;;;;;4994477;28;20038;-58
2022/12/02 06:17:46;;;;;;;7.07;5.65;;;19.30;42.20;;;;;;4991256;28;20363;-59
2022/12/02 06:20:25;;;;;;;7.28;5.93;;;19.30;42.30;;;;;;4991841;28;20535;-59
2022/12/02 06:22:50;;;;;;;6.80;5.55;;;19.30;42.20;;;;;;4992662;28;20049;-57
2022/12/02 06:25:24;;;;;;;7.20;5.57;;;19.30;42.30;;;;;;4992856;28;20519;-57
2022/12/02 06:27:51;;;;;;;8.30;6.63;;;19.30;42.20;;;;;;4994394;28;20197;-59
2022/12/02 06:30:17;;;;;;;9.10;6.32;;;19.30;42.30;;;;;;4996213;28;20088;-60
2022/12/02 06:32:50;;;;;;;7.85;5.60;;;19.30;42.40;;;;;;4993416;28;20042;-60
2022/12/02 06:35:23;;;;;;;6.43;5.50;;;19.70;42.20;;;;;;4992094;28;20046;-58
2022/12/02 06:37:52;;;;;;;7.15;5.40;;;20.30;41.50;;;;;;4995830;28;20056;-59
2022/12/02 06:40:23;;;;;;;7.53;5.82;;;21.00;40.60;;;;;;4991625;28;20053;-58
2022/12/02 06:42:49;;;;;;;7.03;5.47;;;21.50;39.60;;;;;;4994359;28;20058;-58
2022/12/02 06:45:24;;;;;;;7.50;5.70;;;21.90;39.00;;;;;;4994380;28;20034;-59
2022/12/02 06:48:00;;;;;;;7.90;5.72;;;22.20;38.60;;;;;;4993812;28;20503;-58
2022/12/02 06:50:46;;;;;;;6.50;5.43;;;22.20;38.50;;;;;;4992772;28;20052;-59
2022/12/02 06:53:27;;;;;;;6.68;5.40;;;22.20;38.50;;;;;;4997143;28;20046;-57
2022/12/02 06:56:03;;;;;;;8.48;6.10;;;22.20;38.50;;;;;;4995621;28;20041;-58
2022/12/02 06:58:36;;;;;;;7.30;6.47;;;22.20;38.50;;;;;;4995747;28;20069;-58
2022/12/02 07:01:26;;;;;;;6.97;5.88;;;22.20;38.50;;;;;;4993396;28;20049;-58
2022/12/02 07:04:00;;;;;;;8.30;6.03;;;22.10;38.40;;;;;;4992276;28;20046;-59
2022/12/02 07:06:28;;;;;;;8.23;6.10;;;22.00;38.80;;;;;;4992656;28;20815;-60
2022/12/02 07:09:00;;;;;;;11.70;6.57;;;21.90;39.10;;;;;;4994573;28;20521;-58
2022/12/02 07:14:26;;;;;;;7.68;6.63;;;21.80;39.50;;;;;;4994729;28;20041;-58
2022/12/02 07:16:54;;;;;;;9.30;6.72;;;21.80;39.50;;;;;;4992974;28;20085;-59
2022/12/02 07:19:23;;;;;;;9.80;6.13;;;21.70;39.50;;;;;;4993989;28;20088;-59
2022/12/02 07:21:49;;;;;;;9.48;7.10;;;21.70;39.50;;;;;;4992449;28;20113;-59
2022/12/02 07:24:19;;;;;;;8.48;6.43;;;21.70;39.50;;;;;;4992827;28;20046;-59
2022/12/02 07:26:46;;;;;;;7.75;6.05;;;21.70;40.30;;;;;;4990659;28;20053;-57
2022/12/02 07:29:29;;;;;;;11.98;7.40;;;21.80;39.50;;;;;;4989407;28;20959;-60
2022/12/02 07:31:55;;;;;;;10.77;7.47;;;21.80;39.40;;;;;;4984374;28;20142;-59
2022/12/02 07:34:21;;;;;;;12.32;7.28;;;21.80;39.50;;;;;;4991044;28;20434;-58
2022/12/02 07:36:46;;;;;;;10.40;6.88;;;21.70;39.50;;;;;;4991096;28;20430;-59
2022/12/02 07:39:12;;;;;;;10.82;7.03;;;21.70;39.50;;;;;;4990696;28;20561;-58
2022/12/02 07:41:37;;;;;;;9.93;7.40;;;21.80;39.40;;;;;;4953881;28;1076144;-58
2022/12/02 07:44:04;;;;;;;10.52;7.53;;;21.80;39.40;;;;;;4993191;28;20042;-58
2022/12/02 07:46:30;;;;;;;11.50;6.90;;;21.80;39.40;;;;;;4993272;28;20046;-60
2022/12/02 07:48:55;;;;;;;11.45;7.82;;;21.80;39.40;;;;;;4994358;28;20792;-59
2022/12/02 07:51:21;;;;;;;12.07;7.70;;;21.80;39.20;;;;;;4994089;28;20545;-58
2022/12/02 07:53:46;;;;;;;11.45;7.72;;;21.80;39.20;;;;;;4992805;28;20463;-60
2022/12/02 07:56:12;;;;;;;11.00;7.82;;;21.80;39.20;;;;;;4991555;28;20119;-58
2022/12/02 07:58:38;;;;;;;9.35;7.18;;;21.80;39.10;;;;;;4992457;28;20037;-57
2022/12/02 08:01:03;;;;;;;10.57;7.82;;;21.80;39.10;;;;;;4992345;28;20042;-59
2022/12/02 08:03:29;;;;;;;10.50;7.85;;;21.80;39.00;;;;;;4990722;28;20441;-58
2022/12/02 08:05:55;;;;;;;10.02;7.72;;;21.80;39.00;;;;;;4991844;28;20042;-59
2022/12/02 08:08:20;;;;;;;11.70;8.02;;;21.80;39.00;;;;;;4992080;28;20086;-60
2022/12/02 08:10:46;;;;;;;12.45;8.18;;;21.80;39.10;;;;;;4994987;28;20042;-60
2022/12/02 08:13:11;;;;;;;10.35;7.25;;;21.80;39.10;;;;;;4992862;28;20073;-59
2022/12/02 08:15:37;;;;;;;11.40;8.07;;;21.90;39.20;;;;;;4994518;28;20195;-58
2022/12/02 08:18:03;;;;;;;9.60;7.95;;;21.90;39.10;;;;;;4992763;28;20038;-59
2022/12/02 08:20:29;;;;;;;9.88;7.85;;;21.90;39.00;;;;;;4992474;28;20088;-59
2022/12/02 08:22:55;;;;;;;11.15;7.80;;;21.80;39.00;;;;;;4993828;28;20042;-58
2022/12/02 08:25:21;;;;;;;11.52;7.78;;;21.80;39.00;;;;;;4991436;28;20041;-58
2022/12/02 08:27:46;;;;;;;11.68;7.95;;;21.90;39.00;;;;;;4993154;28;20041;-59
2022/12/02 08:30:14;;;;;;;14.13;9.00;;;21.90;39.20;;;;;;4990375;28;20041;-59
2022/12/02 08:32:40;;;;;;;11.80;7.80;;;21.90;39.20;;;;;;4992304;28;20073;-59
2022/12/02 08:35:07;;;;;;;12.00;8.10;;;21.90;39.10;;;;;;4991308;28;20041;-58
2022/12/02 08:37:32;;;;;;;12.23;8.20;;;21.90;39.10;;;;;;4991965;28;20039;-58
2022/12/02 08:39:58;;;;;;;13.10;8.13;;;21.80;39.00;;;;;;4990896;28;20044;-58
2022/12/02 08:42:24;;;;;;;12.55;8.07;;;21.90;39.20;;;;;;4990156;28;20173;-59
2022/12/02 08:44:49;;;;;;;11.38;8.40;;;21.90;39.20;;;;;;4991530;28;20037;-60
2022/12/02 08:47:15;;;;;;;12.10;8.43;;;21.90;39.20;;;;;;4990388;28;20228;-58
2022/12/02 08:49:41;;;;;;;12.75;8.15;;;21.90;39.20;;;;;;4990535;28;20049;-60
2022/12/02 08:52:06;;;;;;;12.65;7.60;;;21.90;39.20;;;;;;4988463;28;20042;-59
2022/12/02 08:54:32;;;;;;;15.32;9.10;;;21.90;39.20;;;;;;4990097;28;20153;-59
2022/12/02 08:56:59;;;;;;;10.75;8.20;;;21.90;39.10;;;;;;4992564;28;20060;-59
2022/12/02 08:59:26;;;;;;;11.77;8.32;;;21.90;39.00;;;;;;4991382;28;20183;-58
2022/12/02 09:01:52;;;;;;;10.63;8.02;;;21.90;39.00;;;;;;4996828;28;20048;-58
2022/12/02 09:04:18;;;;;;;12.15;8.40;;;21.90;39.00;;;;;;4991158;28;20067;-60
2022/12/02 09:06:43;;;;;;;14.77;9.55;;;21.90;39.00;;;;;;4990050;28;20046;-58
2022/12/02 09:09:09;;;;;;;12.50;8.43;;;21.90;39.00;;;;;;4992395;28;20120;-58
2022/12/02 09:11:35;;;;;;;12.60;8.07;;;21.90;39.10;;;;;;4992539;28;20032;-59
2022/12/02 09:14:01;;;;;;;15.45;8.43;;;21.90;39.20;;;;;;4988971;28;20125;-60
2022/12/02 09:16:26;;;;;;;14.77;8.70;;;21.90;39.30;;;;;;4989699;28;20034;-58
2022/12/02 09:18:54;;;;;;;13.32;7.93;;;21.90;39.30;;;;;;4990686;28;20490;-59
2022/12/02 09:21:21;;;;;;;10.80;8.38;;;22.00;39.50;;;;;;4991387;28;20065;-60
2022/12/02 09:23:46;;;;;;;13.20;8.30;;;21.90;39.50;;;;;;4991364;28;20122;-59
2022/12/02 09:26:12;;;;;;;12.27;8.57;;;22.00;39.50;;;;;;4992045;28;20047;-58
2022/12/02 09:28:37;;;;;;;12.43;8.93;;;22.00;39.50;;;;;;4991049;28;20065;-60
2022/12/02 09:31:03;;;;;;;11.15;8.52;;;22.00;39.50;;;;;;4994723;28;20053;-59
2022/12/02 09:33:29;;;;;;;11.30;8.35;;;22.00;39.40;;;;;;4990937;28;20046;-60
2022/12/02 09:35:54;;;;;;;10.88;8.13;;;22.00;39.50;;;;;;4989992;28;20509;-59
2022/12/02 09:38:20;;;;;;;11.32;8.15;;;22.00;39.40;;;;;;4989457;28;20050;-58
2022/12/02 09:40:46;;;;;;;12.40;8.13;;;22.00;39.40;;;;;;4991855;28;20937;-59
2022/12/02 09:43:12;;;;;;;12.20;8.18;;;22.00;39.30;;;;;;4990700;28;20104;-60
2022/12/02 09:45:39;;;;;;;10.45;8.23;;;22.00;40.00;;;;;;4989561;28;20042;-59
2022/12/02 09:48:05;;;;;;;12.50;8.55;;;22.00;39.10;;;;;;4991068;28;20045;-59
2022/12/02 09:50:31;;;;;;;13.57;8.95;;;22.00;39.20;;;;;;4990409;28;20125;-60
2022/12/02 09:53:04;;;;;;;12.57;8.80;;;22.00;39.20;;;;;;4992687;28;20552;-59
2022/12/02 09:55:29;;;;;;;11.75;8.60;;;22.00;39.10;;;;;;4991667;28;20095;-59
2022/12/02 09:57:57;;;;;;;12.73;9.25;;;22.00;39.90;;;;;;4992648;28;20046;-58
2022/12/02 10:00:23;;;;;;;11.15;8.30;;;22.00;39.10;;;;;;4990710;28;20718;-59
2022/12/02 10:02:51;;;;;;;12.60;8.75;;;22.00;39.10;;;;;;4991648;28;20042;-58
2022/12/02 10:05:20;;;;;;;12.15;8.82;;;22.00;39.10;;;;;;4992539;28;20765;-59
2022/12/02 10:07:48;;;;;;;11.63;8.05;;;22.00;39.20;;;;;;4992771;28;20046;-58
2022/12/02 10:10:18;;;;;;;11.30;8.15;;;21.90;39.10;;;;;;4989268;28;20935;-59
2022/12/02 10:12:45;;;;;;;13.68;9.48;;;22.00;39.10;;;;;;4989495;28;20041;-57
2022/12/02 10:15:13;;;;;;;11.82;8.82;;;22.00;39.10;;;;;;4990328;28;20127;-59
2022/12/02 10:17:39;;;;;;;12.18;8.35;;;22.00;39.00;;;;;;4991605;28;20045;-59
2022/12/02 10:20:05;;;;;;;12.95;8.60;;;22.00;38.90;;;;;;4990666;28;20041;-59
2022/12/02 10:22:31;;;;;;;13.32;9.57;;;22.00;38.80;;;;;;4991710;28;20113;-59
2022/12/02 10:24:57;;;;;;;13.32;8.40;;;22.00;38.70;;;;;;4991167;28;20512;-59
2022/12/02 10:27:28;;;;;;;13.65;9.18;;;22.00;38.70;;;;;;4992187;28;20050;-59
2022/12/02 10:30:24;;;;;;;12.15;9.00;;;22.00;38.60;;;;;;4992523;28;20082;-58
2022/12/02 10:33:02;;;;;;;11.57;9.05;;;22.00;38.40;;;;;;4991846;28;20046;-59
2022/12/02 10:35:46;;;;;;;12.75;8.30;;;22.00;38.40;;;;;;4992030;28;20042;-58
2022/12/02 10:38:28;;;;;;;12.80;8.95;;;22.00;38.40;;;;;;4990903;28;20042;-59
2022/12/02 10:41:13;;;;;;;12.45;8.18;;;22.00;38.10;;;;;;4991545;28;20050;-59
2022/12/02 10:43:43;;;;;;;11.57;9.05;;;22.00;38.10;;;;;;4991768;28;20051;-58
2022/12/02 10:46:13;;;;;;;11.68;8.75;;;21.90;38.10;;;;;;4993454;28;20038;-58
2022/12/02 10:48:40;;;;;;;10.48;8.45;;;22.00;38.20;;;;;;4990838;28;20081;-59
2022/12/02 10:51:13;;;;;;;11.50;8.50;;;21.90;38.10;;;;;;4991676;28;20081;-59
2022/12/02 10:53:40;;;;;;;12.65;9.32;;;22.00;38.00;;;;;;4991695;28;20082;-59
2022/12/02 10:56:06;;;;;;;12.43;8.60;;;21.90;38.00;;;;;;4992532;28;20531;-58
2022/12/02 10:58:32;;;;;;;12.73;8.18;;;22.00;38.00;;;;;;4975540;28;20532;-59
2022/12/02 11:00:58;;;;;;;10.10;7.53;;;21.90;38.00;;;;;;4992460;28;20043;-58
2022/12/02 11:03:25;;;;;;;10.45;8.07;;;21.90;37.90;;;;;;4992250;28;20049;-60
2022/12/02 11:05:51;;;;;;;12.45;9.00;;;22.00;37.80;;;;;;4991150;28;20051;-58
2022/12/02 11:08:24;;;;;;;11.68;8.27;;;22.00;37.80;;;;;;4991669;28;20057;-59
2022/12/02 11:11:12;;;;;;;10.10;7.80;;;22.00;37.70;;;;;;4993343;28;20053;-58
2022/12/02 11:14:08;;;;;;;12.20;8.43;;;22.00;37.60;;;;;;4991973;28;20043;-61
2022/12/02 11:16:34;;;;;;;13.38;8.20;;;22.00;37.60;;;;;;4993106;28;20080;-59
2022/12/02 11:19:11;;;;;;;11.52;7.95;;;22.00;37.80;;;;;;4993730;28;20481;-58
2022/12/02 11:21:41;;;;;;;13.48;8.27;;;22.00;37.70;;;;;;4994456;28;20064;-59
2022/12/02 11:24:21;;;;;;;11.05;8.13;;;21.90;37.80;;;;;;4995764;28;20354;-59
2022/12/02 11:27:02;;;;;;;;;;;21.90;37.80;;;;;;4991361;28;20076;-60
2022/12/02 11:29:29;;;;;;;10.30;7.40;;;21.90;37.90;;;;;;4993078;28;19929;-60
2022/12/02 11:32:17;;;;;;;11.43;8.13;;;21.90;38.10;;;;;;4992704;28;20039;-58
2022/12/02 11:34:53;;;;;;;9.52;6.60;;;21.80;38.30;;;;;;5023834;28;20093;-59
2022/12/02 11:37:34;;;;;;;10.25;7.63;;;21.50;38.70;;;;;;4993637;28;20038;-60
2022/12/02 11:40:26;;;;;;;10.73;7.20;;;21.20;39.00;;;;;;4993325;28;20042;-60
2022/12/02 11:43:30;;;;;;;11.38;7.82;;;20.90;39.00;;;;;;4983453;28;20053;-59
2022/12/02 11:45:57;;;;;;;10.75;8.30;;;20.70;39.30;;;;;;4994170;28;20050;-60
2022/12/02 11:48:22;;;;;;;10.70;8.10;;;20.50;40.40;;;;;;4993621;28;20530;-59
2022/12/02 11:50:48;;;;;;;10.10;7.63;;;20.40;40.40;;;;;;4994180;28;20050;-61
2022/12/02 11:53:20;;;;;;;12.95;8.38;;;20.60;40.20;;;;;;4994486;28;20038;-60
2022/12/02 11:55:50;;;;;;;12.32;8.95;;;20.90;39.80;;;;;;4995678;28;20046;-59
2022/12/02 11:58:24;;;;;;;12.98;8.43;;;21.10;39.70;;;;;;5001267;28;20034;-59
2022/12/02 12:01:11;;;;;;;12.70;7.65;;;21.20;39.50;;;;;;4994353;28;20941;-60
2022/12/02 12:03:40;;;;;;;11.48;7.38;;;21.40;39.50;;;;;;4994436;28;20039;-59
2022/12/02 12:06:28;;;;;;;14.07;8.77;;;21.50;39.30;;;;;;4994755;28;20497;-60
2022/12/02 12:08:55;;;;;;;10.88;8.27;;;21.60;39.00;;;;;;4992851;28;20064;-60
2022/12/02 12:11:27;;;;;;;11.15;7.78;;;21.70;39.00;;;;;;4994729;28;20069;-58
2022/12/02 12:14:03;;;;;;;12.50;8.55;;;21.70;38.90;;;;;;4994161;28;20072;-59
2022/12/02 12:16:34;;;;;;;18.00;8.15;;;21.70;38.80;;;;;;4995020;28;20042;-60
2022/12/02 12:19:02;;;;;;;17.00;8.18;;;21.80;38.80;;;;;;4992509;28;20038;-59
2022/12/02 12:21:31;;;;;;;13.32;8.23;;;21.80;38.80;;;;;;4994430;28;20042;-59
2022/12/02 12:24:15;;;;;;;12.68;8.68;;;21.80;38.80;;;;;;4993596;28;20049;-60
2022/12/02 12:26:42;;;;;;;13.30;9.05;;;21.80;38.80;;;;;;4990641;28;20729;-60
2022/12/02 12:29:07;;;;;;;20.95;8.40;;;21.90;38.90;;;;;;4992604;28;20042;-60
2022/12/02 12:31:33;;;;;;;10.63;8.15;;;21.90;39.00;;;;;;4995613;28;20397;-60
2022/12/02 12:33:59;;;;;;;13.63;9.45;;;21.90;38.90;;;;;;4993880;28;20170;-60
2022/12/02 12:36:24;;;;;;;12.68;8.90;;;21.90;38.70;;;;;;4994297;28;20053;-60
2022/12/02 12:38:50;;;;;;;11.95;9.30;;;21.90;38.60;;;;;;4993261;28;20038;-59
2022/12/02 12:41:15;;;;;;;11.68;9.25;;;21.90;38.50;;;;;;4994565;28;20156;-61
2022/12/02 12:43:41;;;;;;;12.27;9.50;;;21.90;38.40;;;;;;4994608;28;20057;-61
2022/12/02 12:46:07;;;;;;;12.73;9.07;;;21.90;38.50;;;;;;4994853;28;20064;-60
2022/12/02 12:48:32;;;;;;;13.35;10.00;;;21.90;38.20;;;;;;4993282;28;20049;-59
2022/12/02 12:50:58;;;;;;;12.93;9.93;;;21.90;38.10;;;;;;4994060;28;20033;-60